Normanton Airport
YNTN : now visible

Airfield :











YOU CAN JOIN US ON...

 
LOGIN :

Register | Disclaimer

   EN    FR    IT 

 









Legend :    VFR   Marginal VFR   IFR   Intensive IFR   Very Intensive IFR
Visi :
Ceiling :
>= 8 km
>= 3000ft
5 to 8 km
1000 to 3000 ft
1500m to 5 km
500 to 1000 ft
800 to 1500m
200 to 500 ft
< 800m
< 200 ft
Symbols :   Thunderstorms  Fog  Heavy snow  Heavy precipitations  Wind > 20 kt






- Airport Elevation : 73 ft
- IATA code : NTN


YNTN - Normanton

CURRENT METAR :
  • 272330Z AUTO 21007KT 3000 +RA SCT020 SCT028 BKN035 24/24 Q1002

EXPIRED METARs :
  • 272303Z AUTO 20004KT 5000 +RA SCT019 SCT041 BKN053 24/24 Q1002
  • 272250Z AUTO 21005KT 9999 RA SCT016 SCT031 SCT056 24/24 Q1002
  • 272235Z AUTO 23007KT 5000 +RA BKN020 BKN035 BKN054 24/24 Q1002
  • 272211Z AUTO 19007KT 3900 +RA SCT008 BKN015 OVC025 24/24 Q1002
  • 272200Z AUTO 19007KT 5000 +RA BKN008 OVC015 OVC039 24/24 Q1002
  • 272134Z AUTO 21008KT 7000 +RA OVC005 24/24 Q1001
  • 272118Z AUTO 19007KT 5000 +SHRA OVC004 24/24 Q1001
  • 272100Z AUTO 15004KT 9999 -SHRA OVC004 25/25 Q1001 RESHRA

TAF N/A



MET'MAP, your aeronautical weather chart ! - Copyright ORBIFLY December 2007 - Disclaimer

ORBIFLY MET'MAP TEAM :

Programming & Development : Alexandra Zaïnal
Concept & original design : Baudouin d'Aumeries
Assistance for programming : Marc-Olivier Méhu
Technical & hardware support : Manuel Goepfert

Contact : metmap@orbifly.com




SOURCES & CREDITS :

   NOAA       Earth
Advisory